Time;durP1;ratioP1;P1;durP2;ratioP2;P2;SDS_P1;SDS_P2;PMS_P1;PMS_P2;Temp;Humidity;BMP_temperature;BMP_pressure;BME280_temperature;BME280_humidity;BME280_pressure;Samples;Min_cycle;Max_cycle;Signal;HPM_P1;HPM_P2
2022/02/20 00:00:31;;;;;;;4.47;1.60;;;;;;;6.25;55.72;95601.63;5050788;28;20225;-82
2022/02/20 00:02:57;;;;;;;2.77;1.70;;;;;;;6.31;55.54;95595.13;5051542;28;20194;-78
2022/02/20 00:05:24;;;;;;;4.90;1.87;;;;;;;6.29;55.72;95594.47;5050976;28;20194;-80
2022/02/20 00:07:51;;;;;;;3.37;1.63;;;;;;;6.27;55.71;95597.19;5054513;28;20193;-82
2022/02/20 00:10:17;;;;;;;3.10;1.80;;;;;;;6.18;55.86;95595.50;5054172;28;20209;-82
2022/02/20 00:12:45;;;;;;;2.53;1.47;;;;;;;6.22;55.95;95594.25;5054302;28;20218;-81
2022/02/20 00:15:11;;;;;;;3.93;1.77;;;;;;;6.21;56.32;95600.31;5054121;28;20209;-82
2022/02/20 00:17:38;;;;;;;3.03;1.37;;;;;;;6.14;56.20;95601.88;5054534;28;20597;-82
2022/02/20 00:20:06;;;;;;;4.87;1.83;;;;;;;6.17;56.53;95604.13;5054034;28;20652;-81
2022/02/20 00:22:34;;;;;;;4.83;2.07;;;;;;;6.15;56.58;95599.19;5051720;28;20217;-81
2022/02/20 00:25:01;;;;;;;2.13;1.53;;;;;;;6.10;56.59;95592.91;5053311;28;20189;-82
2022/02/20 00:27:27;;;;;;;4.03;1.60;;;;;;;6.18;56.72;95593.75;5061554;28;20200;-82
2022/02/20 00:29:55;;;;;;;4.40;1.50;;;;;;;6.14;56.93;95600.13;5071291;28;20216;-82
2022/02/20 00:32:22;;;;;;;4.83;1.90;;;;;;;6.08;57.06;95594.81;5070247;28;20216;-80
2022/02/20 00:34:48;;;;;;;3.47;1.50;;;;;;;6.18;56.91;95585.28;5071797;28;20213;-81
2022/02/20 00:37:14;;;;;;;3.07;1.40;;;;;;;6.11;56.72;95584.28;5070526;28;20567;-82
2022/02/20 00:39:41;;;;;;;2.57;1.43;;;;;;;6.11;57.03;95589.41;5060570;28;20232;-82
2022/02/20 00:42:08;;;;;;;4.00;1.67;;;;;;;6.16;56.52;95587.19;5054245;28;20580;-82
2022/02/20 00:44:34;;;;;;;4.97;1.87;;;;;;;6.11;56.72;95589.41;5052796;28;20201;-82
2022/02/20 00:47:02;;;;;;;2.70;1.57;;;;;;;6.15;55.92;95593.28;5054266;28;20201;-81
2022/02/20 00:49:28;;;;;;;4.53;1.30;;;;;;;6.11;55.79;95595.31;5053576;28;20221;-81
2022/02/20 00:51:55;;;;;;;3.47;1.30;;;;;;;6.08;55.65;95603.28;5053904;28;20217;-82
2022/02/20 00:54:21;;;;;;;3.63;1.70;;;;;;;6.14;55.17;95592.47;5053511;28;20217;-82
2022/02/20 00:56:48;;;;;;;2.77;1.40;;;;;;;6.19;55.09;95592.00;5054326;28;20657;-79
2022/02/20 00:59:14;;;;;;;3.07;1.60;;;;;;;6.20;54.46;95591.84;5052930;28;20222;-82
2022/02/20 01:01:41;;;;;;;2.60;1.17;;;;;;;6.19;54.05;95603.03;5053486;28;20221;-81
2022/02/20 01:04:10;;;;;;;2.70;1.53;;;;;;;6.29;53.80;95597.03;5053091;28;20233;-82
2022/02/20 01:06:36;;;;;;;2.30;1.23;;;;;;;6.36;53.61;95598.81;5053878;28;20201;-82
2022/02/20 01:09:03;;;;;;;2.73;1.10;;;;;;;6.42;53.11;95603.34;5053279;28;20228;-81
2022/02/20 01:11:30;;;;;;;3.43;1.30;;;;;;;6.44;53.26;95605.75;5053523;28;20332;-81
2022/02/20 01:13:56;;;;;;;2.33;1.53;;;;;;;6.48;52.89;95605.31;5053211;28;20250;-82
2022/02/20 01:16:23;;;;;;;4.37;1.70;;;;;;;6.42;52.24;95617.88;5054215;28;20201;-81
2022/02/20 01:18:50;;;;;;;2.87;1.50;;;;;;;6.47;52.03;95618.25;5051654;28;20229;-81
2022/02/20 01:21:17;;;;;;;2.20;1.20;;;;;;;6.48;51.47;95623.22;5052622;28;20586;-81
2022/02/20 01:23:44;;;;;;;5.87;1.40;;;;;;;6.56;51.62;95623.25;5052629;28;20194;-82
2022/02/20 01:26:10;;;;;;;2.17;1.37;;;;;;;6.59;51.32;95627.25;5052429;28;20190;-81
2022/02/20 01:28:37;;;;;;;4.33;1.40;;;;;;;6.64;50.96;95640.41;5052153;28;20232;-81
2022/02/20 01:31:03;;;;;;;2.47;1.30;;;;;;;6.57;50.40;95635.09;5052626;28;20631;-81
2022/02/20 01:33:30;;;;;;;2.77;1.77;;;;;;;6.65;50.23;95641.22;5052356;28;20205;-81
2022/02/20 01:35:57;;;;;;;3.10;1.50;;;;;;;6.64;49.74;95647.28;5052210;28;20213;-81
2022/02/20 01:38:24;;;;;;;3.10;1.27;;;;;;;6.63;49.42;95643.94;5052230;28;20225;-81
2022/02/20 01:40:51;;;;;;;1.40;1.20;;;;;;;6.72;49.01;95644.78;5052609;28;20296;-82
2022/02/20 01:43:18;;;;;;;1.30;1.17;;;;;;;6.73;49.01;95659.19;5052456;28;20205;-78
2022/02/20 01:45:44;;;;;;;1.63;1.20;;;;;;;6.67;48.18;95660.59;5052707;28;20189;-81
2022/02/20 01:48:11;;;;;;;2.10;1.00;;;;;;;6.66;47.94;95665.84;5052172;28;20229;-80
2022/02/20 01:50:37;;;;;;;1.93;1.23;;;;;;;6.59;46.97;95651.09;5053025;28;20280;-82
2022/02/20 01:53:04;;;;;;;1.23;1.07;;;;;;;6.71;46.97;95653.41;5052824;28;20193;-81
2022/02/20 01:55:32;;;;;;;2.17;1.10;;;;;;;6.77;46.52;95655.34;5052544;28;20221;-79
2022/02/20 01:57:58;;;;;;;2.43;0.90;;;;;;;6.78;45.67;95657.75;5051693;28;20304;-79
2022/02/20 02:00:25;;;;;;;2.03;1.00;;;;;;;6.66;45.10;95640.28;5052036;28;20190;-81
2022/02/20 02:02:51;;;;;;;2.40;1.10;;;;;;;6.65;45.25;95651.44;5052532;28;20197;-81
2022/02/20 02:05:18;;;;;;;1.40;1.00;;;;;;;6.62;44.89;95642.31;5052452;28;20192;-82
2022/02/20 02:07:44;;;;;;;1.47;1.03;;;;;;;6.62;44.28;95641.50;5052161;28;20193;-81
2022/02/20 02:10:11;;;;;;;4.53;1.03;;;;;;;6.68;44.28;95651.16;5052882;28;20194;-81
2022/02/20 02:12:39;;;;;;;2.53;1.10;;;;;;;6.73;44.54;95654.88;5051785;28;20708;-80
2022/02/20 02:15:07;;;;;;;1.77;1.20;;;;;;;6.75;43.94;95637.59;5051528;28;20220;-81
2022/02/20 02:17:34;;;;;;;2.70;1.20;;;;;;;6.75;44.38;95631.66;5051379;28;20198;-82
2022/02/20 02:20:03;;;;;;;1.40;1.30;;;;;;;6.61;45.02;95640.72;5052369;28;20221;-82
2022/02/20 02:22:31;;;;;;;1.87;1.00;;;;;;;6.51;45.30;95632.34;5051634;28;20304;-83
2022/02/20 02:24:58;;;;;;;1.93;1.00;;;;;;;6.54;45.71;95637.94;5052594;28;20194;-82
2022/02/20 02:27:26;;;;;;;2.43;1.10;;;;;;;6.56;46.18;95643.72;5051971;28;20193;-78
2022/02/20 02:29:53;;;;;;;1.80;0.90;;;;;;;6.44;47.11;95639.81;5050978;28;20229;-81
2022/02/20 02:32:21;;;;;;;3.63;1.20;;;;;;;6.27;48.23;95661.09;5051383;28;20233;-80
2022/02/20 02:34:48;;;;;;;1.80;1.10;;;;;;;6.20;49.22;95639.63;5052058;28;20291;-82
2022/02/20 02:37:15;;;;;;;2.83;0.87;;;;;;;6.04;51.57;95642.06;5051770;28;20796;-82
2022/02/20 02:39:44;;;;;;;1.00;0.90;;;;;;;5.93;51.45;95637.97;5049767;28;20229;-81
2022/02/20 02:42:11;;;;;;;2.97;1.37;;;;;;;5.97;52.01;95644.38;5052205;28;20224;-81
2022/02/20 02:44:37;;;;;;;2.00;1.30;;;;;;;6.05;51.40;95641.09;5050955;28;20209;-81
2022/02/20 02:47:04;;;;;;;2.00;1.03;;;;;;;5.98;53.32;95642.63;5051625;28;20190;-80
2022/02/20 02:49:31;;;;;;;1.80;0.97;;;;;;;6.04;53.72;95658.19;5050779;28;20225;-82
2022/02/20 02:51:57;;;;;;;2.10;1.30;;;;;;;5.93;54.16;95652.50;5051629;28;20221;-78
2022/02/20 02:54:24;;;;;;;3.03;1.10;;;;;;;5.81;55.46;95675.66;5051224;28;20221;-79
2022/02/20 02:56:52;;;;;;;3.33;1.13;;;;;;;5.78;56.68;95659.81;5051565;28;20197;-82
2022/02/20 02:59:19;;;;;;;1.97;1.23;;;;;;;5.74;57.32;95663.63;5050755;28;20228;-84
2022/02/20 03:01:47;;;;;;;2.83;1.13;;;;;;;5.68;57.93;95665.00;5051969;28;20675;-80
2022/02/20 03:04:14;;;;;;;1.83;1.20;;;;;;;5.64;58.40;95666.25;5051076;28;20276;-82
2022/02/20 03:06:41;;;;;;;2.47;1.10;;;;;;;5.44;59.83;95698.75;5051348;28;20200;-82
2022/02/20 03:09:07;;;;;;;1.37;1.20;;;;;;;5.32;60.76;95669.25;5050838;28;20237;-80
2022/02/20 03:11:34;;;;;;;2.80;1.50;;;;;;;5.32;61.11;95671.81;5050669;28;20214;-82
2022/02/20 03:14:02;;;;;;;2.50;1.10;;;;;;;5.36;61.75;95672.31;5051015;28;20687;-81
2022/02/20 03:16:29;;;;;;;1.77;0.90;;;;;;;5.43;61.51;95676.69;5051393;28;20213;-82
2022/02/20 03:18:55;;;;;;;1.03;0.90;;;;;;;5.34;62.04;95687.78;5050576;28;20232;-81
2022/02/20 03:21:22;;;;;;;2.13;1.00;;;;;;;5.31;62.96;95685.50;5051688;28;20217;-81
2022/02/20 03:23:48;;;;;;;2.50;1.17;;;;;;;5.03;64.58;95684.66;5051447;28;20201;-81
2022/02/20 03:26:14;;;;;;;3.07;1.03;;;;;;;5.11;65.04;95707.75;5043597;28;20684;-80
2022/02/20 03:28:41;;;;;;;1.93;1.00;;;;;;;4.99;66.66;95698.66;5050490;28;20229;-78
2022/02/20 03:31:09;;;;;;;1.37;0.90;;;;;;;4.79;67.70;95700.47;5053176;28;20715;-81
2022/02/20 03:33:35;;;;;;;1.53;1.10;;;;;;;4.56;68.54;95691.53;5054835;28;20902;-81
2022/02/20 03:36:02;;;;;;;1.00;0.90;;;;;;;4.48;69.42;95683.75;5053513;28;20213;-81
2022/02/20 03:38:28;;;;;;;2.37;0.93;;;;;;;4.58;70.04;95710.03;5053813;28;20229;-81
2022/02/20 03:40:55;;;;;;;1.93;1.10;;;;;;;4.51;70.42;95684.28;5048793;28;20221;-81
2022/02/20 03:43:21;;;;;;;1.20;1.10;;;;;;;4.62;70.76;95683.31;5057653;28;20212;-81
2022/02/20 03:45:47;;;;;;;1.40;1.10;;;;;;;4.74;69.23;95674.56;5058875;28;20296;-81
2022/02/20 03:48:15;;;;;;;2.03;0.97;;;;;;;4.71;69.49;95679.13;5054405;28;20225;-81
2022/02/20 03:50:42;;;;;;;1.53;1.30;;;;;;;4.67;68.71;95665.84;5054409;28;20194;-81
2022/02/20 03:53:08;;;;;;;2.63;1.33;;;;;;;4.74;68.49;95669.47;5054352;28;20189;-81
2022/02/20 03:55:35;;;;;;;2.40;1.23;;;;;;;4.73;67.68;95657.66;5054878;28;20228;-80
2022/02/20 03:58:01;;;;;;;2.17;1.03;;;;;;;4.68;67.78;95669.22;5053804;28;20225;-79
2022/02/20 04:00:28;;;;;;;1.73;0.93;;;;;;;4.65;67.54;95677.13;5054529;28;20205;-82
2022/02/20 04:02:55;;;;;;;3.83;1.27;;;;;;;4.68;66.74;95685.31;5048498;28;20200;-79
2022/02/20 04:05:23;;;;;;;1.30;1.00;;;;;;;4.77;66.08;95666.66;5053738;28;20190;-79
2022/02/20 04:07:49;;;;;;;1.10;1.00;;;;;;;4.87;64.61;95679.34;5053471;28;20205;-81
2022/02/20 04:10:16;;;;;;;1.87;0.93;;;;;;;4.88;64.65;95664.84;5054140;28;20193;-81
2022/02/20 04:12:44;;;;;;;2.00;0.93;;;;;;;4.86;63.15;95673.44;5054264;28;20658;-81
2022/02/20 04:15:11;;;;;;;1.67;1.17;;;;;;;4.93;62.52;95676.25;5053909;28;20218;-82
2022/02/20 04:17:41;;;;;;;1.50;1.00;;;;;;;5.06;62.22;95673.38;5053440;28;20237;-81
2022/02/20 04:20:09;;;;;;;2.03;1.20;;;;;;;5.17;61.39;95688.53;5054318;28;20193;-81
2022/02/20 04:22:37;;;;;;;1.90;0.97;;;;;;;5.23;60.43;95685.41;5053684;28;20221;-81
2022/02/20 04:25:04;;;;;;;1.43;1.00;;;;;;;5.35;59.99;95683.47;5054201;28;20186;-80
2022/02/20 04:27:31;;;;;;;1.90;1.10;;;;;;;5.34;59.38;95681.88;5053848;28;20206;-80
2022/02/20 04:29:57;;;;;;;2.20;1.00;;;;;;;5.36;58.88;95688.44;5047031;28;20233;-82
2022/02/20 04:32:24;;;;;;;2.23;0.97;;;;;;;5.33;58.79;95680.25;5053928;28;20217;-81
2022/02/20 04:34:50;;;;;;;1.60;0.90;;;;;;;5.34;57.82;95675.03;5053901;28;20189;-82
2022/02/20 04:37:17;;;;;;;1.60;0.97;;;;;;;5.40;57.66;95682.09;5054295;28;20208;-81
2022/02/20 04:39:45;;;;;;;2.17;1.07;;;;;;;5.54;57.24;95676.53;5053132;28;20229;-82
2022/02/20 04:42:11;;;;;;;4.50;1.23;;;;;;;5.65;56.78;95664.50;5053644;28;20218;-79
2022/02/20 04:44:38;;;;;;;5.53;1.23;;;;;;;5.57;56.16;95670.34;5053545;28;20717;-82
2022/02/20 04:47:04;;;;;;;2.50;0.93;;;;;;;5.64;56.17;95662.88;5053609;28;20197;-81
2022/02/20 04:49:30;;;;;;;1.40;1.10;;;;;;;5.73;55.74;95677.34;5052720;28;20692;-82
2022/02/20 04:51:57;;;;;;;0.83;0.80;;;;;;;5.74;55.20;95674.66;5053443;28;20225;-82
2022/02/20 04:54:23;;;;;;;1.43;0.90;;;;;;;5.71;55.23;95669.03;5053197;28;20209;-82
2022/02/20 04:56:51;;;;;;;0.70;0.70;;;;;;;5.77;54.91;95676.91;5053086;28;20209;-82
2022/02/20 04:59:18;;;;;;;1.40;0.90;;;;;;;5.77;54.72;95663.34;5053232;28;20245;-82
2022/02/20 05:01:45;;;;;;;1.93;1.00;;;;;;;5.78;54.50;95670.03;5053034;28;20250;-81
2022/02/20 05:04:12;;;;;;;1.13;0.93;;;;;;;5.74;55.10;95673.84;5053144;28;20194;-81
2022/02/20 05:06:38;;;;;;;1.30;0.93;;;;;;;5.90;54.91;95674.03;5053080;28;20193;-82
2022/02/20 05:09:05;;;;;;;2.27;1.20;;;;;;;5.98;54.91;95684.31;5053314;28;20221;-81
2022/02/20 05:11:31;;;;;;;2.63;1.13;;;;;;;5.98;54.51;95681.75;5053770;28;20611;-79
2022/02/20 05:14:00;;;;;;;2.13;1.10;;;;;;;6.06;54.74;95679.28;5053128;28;20208;-80
2022/02/20 05:16:30;;;;;;;1.20;0.93;;;;;;;6.21;54.74;95685.50;5053118;28;20220;-82
2022/02/20 05:18:56;;;;;;;2.93;1.20;;;;;;;6.19;54.78;95677.16;5052567;28;20237;-82
2022/02/20 05:21:23;;;;;;;1.47;1.03;;;;;;;6.09;55.74;95678.19;5053175;28;20220;-82
2022/02/20 05:23:49;;;;;;;1.63;1.00;;;;;;;6.03;56.08;95679.59;5052800;28;20196;-82
2022/02/20 05:26:16;;;;;;;2.17;1.23;;;;;;;6.04;56.46;95677.84;5053213;28;20204;-82
2022/02/20 05:28:43;;;;;;;1.57;1.03;;;;;;;5.97;56.23;95682.72;5051885;28;20232;-82
2022/02/20 05:31:11;;;;;;;2.50;1.30;;;;;;;6.01;56.53;95689.16;5052733;28;20734;-82
2022/02/20 05:33:38;;;;;;;3.07;1.30;;;;;;;5.95;56.73;95687.19;5052774;28;20205;-81
2022/02/20 05:36:05;;;;;;;1.70;0.90;;;;;;;6.06;56.63;95679.28;5052984;28;20752;-82
2022/02/20 05:38:31;;;;;;;2.03;1.03;;;;;;;6.11;57.04;95692.44;5052320;28;20233;-81
2022/02/20 05:40:57;;;;;;;1.30;1.00;;;;;;;6.13;56.75;95682.09;5052494;28;20214;-81
2022/02/20 05:43:24;;;;;;;1.93;1.10;;;;;;;6.14;56.87;95691.34;5052540;28;20575;-79
2022/02/20 05:45:50;;;;;;;2.20;1.20;;;;;;;6.13;57.14;95685.44;5052459;28;20197;-82
2022/02/20 05:48:18;;;;;;;1.80;1.00;;;;;;;6.14;56.71;95686.25;5052339;28;20224;-81
2022/02/20 05:50:44;;;;;;;4.87;1.30;;;;;;;6.12;56.72;95690.69;5052569;28;20202;-81
2022/02/20 05:53:11;;;;;;;2.13;1.10;;;;;;;6.09;57.21;95686.69;5053467;28;20748;-81
2022/02/20 05:55:38;;;;;;;1.20;1.10;;;;;;;5.94;56.99;95697.56;5052216;28;20943;-81
2022/02/20 05:58:04;;;;;;;2.37;1.10;;;;;;;6.09;57.07;95689.22;5052065;28;20225;-82
2022/02/20 06:00:31;;;;;;;1.17;1.00;;;;;;;6.03;56.97;95673.66;5051151;28;20267;-81
2022/02/20 06:02:57;;;;;;;2.57;1.00;;;;;;;6.15;56.58;95680.19;5051658;28;20202;-82
2022/02/20 06:05:25;;;;;;;1.57;1.23;;;;;;;6.10;56.86;95690.03;5051204;28;20189;-79
2022/02/20 06:07:52;;;;;;;2.13;1.00;;;;;;;6.16;56.70;95699.66;5051782;28;20205;-79
2022/02/20 06:10:18;;;;;;;1.53;1.40;;;;;;;6.15;56.10;95698.06;5051893;28;20679;-82
2022/02/20 06:12:45;;;;;;;2.17;1.20;;;;;;;6.16;56.28;95710.69;5051650;28;20228;-82
2022/02/20 06:15:12;;;;;;;3.47;1.03;;;;;;;6.18;56.17;95710.53;5051864;28;20336;-82
2022/02/20 06:17:38;;;;;;;1.83;1.20;;;;;;;6.28;55.99;95718.94;5051575;28;20740;-80
2022/02/20 06:20:08;;;;;;;2.10;1.00;;;;;;;6.20;56.39;95729.91;5051849;28;20193;-81
2022/02/20 06:22:36;;;;;;;1.93;1.00;;;;;;;6.21;56.04;95734.06;5051892;28;20301;-82
2022/02/20 06:25:02;;;;;;;2.17;1.20;;;;;;;6.24;56.54;95728.66;5051730;28;20603;-80
2022/02/20 06:27:29;;;;;;;1.47;1.10;;;;;;;6.28;56.17;95741.16;5051893;28;20212;-81
2022/02/20 06:29:55;;;;;;;3.03;1.00;;;;;;;6.24;56.29;95744.00;5050475;28;20662;-81
2022/02/20 06:32:22;;;;;;;1.90;1.20;;;;;;;6.28;56.50;95739.41;5051841;28;20220;-82
2022/02/20 06:34:48;;;;;;;2.70;1.07;;;;;;;6.39;56.32;95741.72;5050833;28;20645;-83
2022/02/20 06:37:14;;;;;;;1.20;1.10;;;;;;;6.45;55.92;95751.38;5051924;28;20213;-81
2022/02/20 06:39:44;;;;;;;1.10;1.00;;;;;;;6.51;56.19;95744.88;5050792;28;20221;-82
2022/02/20 06:42:11;;;;;;;3.57;1.10;;;;;;;6.50;56.14;95738.97;5051435;28;20213;-82
2022/02/20 06:44:38;;;;;;;4.07;1.10;;;;;;;6.50;56.12;95745.84;5051066;28;20198;-81
2022/02/20 06:47:05;;;;;;;4.10;1.10;;;;;;;6.42;56.12;95756.78;5051671;28;20711;-82
2022/02/20 06:49:31;;;;;;;2.40;1.03;;;;;;;6.44;56.24;95743.84;5050159;28;20222;-82
2022/02/20 06:51:58;;;;;;;1.63;1.00;;;;;;;6.43;56.29;95749.91;5051567;28;20243;-82
2022/02/20 06:54:27;;;;;;;4.33;1.40;;;;;;;6.49;55.99;95749.34;5050899;28;20201;-82
2022/02/20 06:56:55;;;;;;;1.43;0.90;;;;;;;6.52;56.36;95754.16;5060736;28;20213;-80
2022/02/20 06:59:21;;;;;;;2.07;0.97;;;;;;;6.45;56.42;95751.38;5052487;28;20243;-78
2022/02/20 07:01:48;;;;;;;3.70;1.20;;;;;;;6.41;56.79;95762.03;5051873;28;20313;-80
2022/02/20 07:04:15;;;;;;;1.80;1.20;;;;;;;6.50;56.60;95759.44;5051126;28;20212;-82
2022/02/20 07:06:42;;;;;;;2.50;1.20;;;;;;;6.49;56.51;95765.50;5033340;28;20229;-79
2022/02/20 07:09:09;;;;;;;2.47;1.20;;;;;;;6.53;56.18;95774.47;5031026;28;20307;-80
2022/02/20 07:11:36;;;;;;;1.47;1.10;;;;;;;6.51;56.47;95781.50;5037164;28;20221;-80
2022/02/20 07:14:04;;;;;;;2.43;1.20;;;;;;;6.61;56.53;95775.50;5046355;28;20194;-81
2022/02/20 07:16:31;;;;;;;2.00;1.20;;;;;;;6.65;55.92;95781.94;5048701;28;20596;-82
2022/02/20 07:18:57;;;;;;;1.60;1.10;;;;;;;6.54;56.46;95796.53;5050988;28;20225;-81
2022/02/20 07:21:24;;;;;;;2.17;1.43;;;;;;;6.56;56.63;95783.59;5048486;28;20217;-79
2022/02/20 07:23:50;;;;;;;2.93;1.40;;;;;;;6.52;56.43;95789.97;5049480;28;20197;-80
2022/02/20 07:26:17;;;;;;;1.10;1.00;;;;;;;6.53;56.41;95789.03;5049015;28;20186;-79
2022/02/20 07:28:43;;;;;;;1.40;1.20;;;;;;;6.52;56.55;95790.78;5048901;28;20247;-81
2022/02/20 07:31:12;;;;;;;1.73;1.00;;;;;;;6.55;56.76;95785.34;5049271;28;20247;-80
2022/02/20 07:33:39;;;;;;;1.47;1.00;;;;;;;6.72;56.62;95785.50;5049264;28;20193;-80
2022/02/20 07:36:06;;;;;;;2.73;1.20;;;;;;;6.72;56.00;95788.06;5048331;28;20260;-81
2022/02/20 07:44:34;;;;;;;3.13;1.10;;;;;;;6.70;55.95;95789.97;5054062;28;20244;-83
2022/02/20 07:47:03;;;;;;;1.73;1.00;;;;;;;6.73;56.07;95794.78;5055190;28;20202;-83
2022/02/20 07:49:38;;;;;;;1.70;1.07;;;;;;;6.81;55.92;95794.84;5056521;28;20233;-83
2022/02/20 07:52:05;;;;;;;1.50;1.03;;;;;;;6.88;55.46;95799.22;5053807;28;20213;-83
2022/02/20 07:54:32;;;;;;;1.40;1.10;;;;;;;6.93;55.60;95798.78;5056349;28;20276;-83
2022/02/20 07:56:59;;;;;;;2.63;1.50;;;;;;;7.03;55.49;95791.00;5072432;23;20388;-80
2022/02/20 07:59:26;;;;;;;1.93;1.10;;;;;;;6.97;55.39;95802.63;5032670;28;20265;-80
2022/02/20 08:01:52;;;;;;;1.93;1.00;;;;;;;6.90;55.47;95811.88;5032970;28;20222;-81
2022/02/20 08:04:20;;;;;;;2.17;1.07;;;;;;;6.87;55.39;95812.19;5032623;28;20244;-80
2022/02/20 08:06:46;;;;;;;2.20;1.17;;;;;;;6.88;55.33;95814.59;5028802;28;20200;-81
2022/02/20 08:09:13;;;;;;;2.27;1.03;;;;;;;6.98;55.42;95811.13;5027333;28;20735;-81
2022/02/20 08:11:40;;;;;;;1.93;1.00;;;;;;;7.10;55.15;95821.00;5017691;28;20199;-80
2022/02/20 08:14:07;;;;;;;1.67;1.00;;;;;;;7.15;55.00;95816.22;5034095;28;20190;-81
2022/02/20 08:16:33;;;;;;;3.23;1.10;;;;;;;7.17;55.17;95821.19;5035833;28;20279;-80
2022/02/20 08:19:00;;;;;;;1.93;1.10;;;;;;;7.15;54.86;95828.22;5033826;28;20704;-80
2022/02/20 08:21:27;;;;;;;1.87;1.10;;;;;;;7.11;54.95;95817.50;5032655;28;20194;-80
2022/02/20 08:23:54;;;;;;;1.80;1.23;;;;;;;7.11;55.48;95825.16;5034355;28;20198;-80
2022/02/20 08:26:21;;;;;;;2.47;1.27;;;;;;;7.20;55.12;95833.69;5035474;28;20198;-80
2022/02/20 08:28:48;;;;;;;1.93;1.10;;;;;;;7.11;54.97;95835.41;5042235;28;20865;-80
2022/02/20 08:31:17;;;;;;;2.73;1.20;;;;;;;7.12;55.41;95834.44;5035981;28;20199;-85
2022/02/20 08:33:43;;;;;;;2.47;1.20;;;;;;;7.31;55.13;95838.59;5036214;28;20198;-81
2022/02/20 08:36:10;;;;;;;2.70;1.40;;;;;;;7.30;54.75;95836.19;5037247;28;20198;-81
2022/02/20 08:38:38;;;;;;;2.23;1.37;;;;;;;7.26;54.71;95826.22;5035816;28;20261;-82
2022/02/20 08:41:05;;;;;;;1.53;1.10;;;;;;;7.28;55.06;95832.00;5035927;28;20190;-82
2022/02/20 08:43:32;;;;;;;2.70;1.10;;;;;;;7.27;55.33;95832.97;5035788;28;20665;-79
2022/02/20 08:45:58;;;;;;;1.73;1.20;;;;;;;7.28;55.13;95833.75;5035226;28;20699;-81
2022/02/20 08:48:24;;;;;;;2.47;1.23;;;;;;;7.31;54.92;95832.66;5030257;28;20226;-79
2022/02/20 08:50:51;;;;;;;1.53;1.20;;;;;;;7.27;55.36;95824.47;5032613;28;20584;-79
2022/02/20 08:53:18;;;;;;;2.00;1.10;;;;;;;7.26;55.51;95821.09;5027734;28;20201;-80
2022/02/20 08:55:46;;;;;;;2.20;0.90;;;;;;;7.33;55.45;95823.06;5034897;28;20202;-83
2022/02/20 08:58:12;;;;;;;1.67;1.07;;;;;;;7.42;55.25;95820.41;5033705;28;20241;-81
2022/02/20 09:00:39;;;;;;;1.23;1.13;;;;;;;7.53;54.62;95816.78;5030540;28;20280;-78
2022/02/20 09:03:05;;;;;;;1.97;1.43;;;;;;;7.54;54.87;95823.50;5028175;28;20222;-78
2022/02/20 09:05:31;;;;;;;3.47;1.17;;;;;;;7.56;54.39;95811.34;5029258;28;20202;-80
2022/02/20 09:07:58;;;;;;;3.03;1.10;;;;;;;7.53;54.74;95815.00;5027504;28;20237;-85
2022/02/20 09:10:24;;;;;;;1.43;1.10;;;;;;;7.56;54.85;95803.66;5018422;28;20198;-80
2022/02/20 09:12:52;;;;;;;1.10;0.90;;;;;;;7.62;54.64;95801.31;5016478;28;20203;-79
2022/02/20 09:15:19;;;;;;;1.47;1.03;;;;;;;7.66;54.54;95793.31;5015374;28;20677;-80
2022/02/20 09:17:45;;;;;;;2.43;1.10;;;;;;;7.67;54.66;95784.66;5014899;28;20554;-79
2022/02/20 09:20:12;;;;;;;1.57;0.90;;;;;;;7.77;54.90;95793.84;5030310;28;20195;-80
2022/02/20 09:22:41;;;;;;;1.33;1.10;;;;;;;7.86;54.73;95797.25;5031868;28;20202;-80
2022/02/20 09:25:09;;;;;;;1.43;1.03;;;;;;;7.73;54.41;95789.97;5033494;28;20281;-79
2022/02/20 09:27:35;;;;;;;3.27;1.20;;;;;;;8.21;59.45;95796.22;5032867;28;20218;-80
2022/02/20 09:30:04;;;;;;;2.13;1.10;;;;;;;8.22;54.90;95792.72;5033089;28;20254;-80
2022/02/20 09:32:30;;;;;;;2.67;1.00;;;;;;;8.15;55.73;95796.84;5032805;28;20284;-80
2022/02/20 09:34:57;;;;;;;2.17;1.00;;;;;;;8.14;55.61;95795.25;5034400;28;20206;-80
2022/02/20 09:37:23;;;;;;;1.53;0.90;;;;;;;8.05;55.15;95793.63;5033786;28;20218;-79
2022/02/20 09:39:51;;;;;;;1.70;1.23;;;;;;;8.11;55.69;95783.53;5032493;28;20198;-79
2022/02/20 09:42:17;;;;;;;2.70;1.20;;;;;;;8.25;55.10;95774.44;5032349;28;20194;-79
2022/02/20 09:44:44;;;;;;;2.40;1.13;;;;;;;8.25;55.13;95788.06;5033742;28;20834;-79
2022/02/20 09:47:13;;;;;;;2.27;0.90;;;;;;;8.35;55.06;95780.25;5033019;28;20210;-79
2022/02/20 09:49:40;;;;;;;1.67;1.10;;;;;;;8.48;55.06;95777.22;5032922;28;20198;-79
2022/02/20 09:52:07;;;;;;;1.57;1.10;;;;;;;8.49;54.15;95768.56;5032244;28;20201;-80
2022/02/20 09:54:34;;;;;;;1.83;1.13;;;;;;;8.42;55.16;95770.19;5033070;28;20202;-81
2022/02/20 09:57:00;;;;;;;1.67;1.17;;;;;;;8.49;54.90;95761.66;5032805;28;20233;-80
2022/02/20 09:59:27;;;;;;;1.50;1.10;;;;;;;8.71;54.93;95755.09;5032326;28;20521;-80
2022/02/20 10:02:07;;;;;;;1.97;1.50;;;;;;;8.82;54.17;95747.09;5032317;28;20206;-80
2022/02/20 10:04:43;;;;;;;1.63;1.07;;;;;;;9.09;53.55;95753.63;5028681;28;20204;-79
2022/02/20 10:07:26;;;;;;;5.90;1.10;;;;;;;9.25;52.48;95753.59;5033785;28;20216;-80
2022/02/20 10:09:53;;;;;;;1.73;0.80;;;;;;;9.44;52.42;95734.44;5038583;28;20237;-79
2022/02/20 10:12:21;;;;;;;1.87;1.00;;;;;;;9.92;51.63;95736.03;5033750;28;20202;-79
2022/02/20 10:14:47;;;;;;;2.97;1.20;;;;;;;9.95;51.13;95740.03;5035189;28;20285;-79
2022/02/20 10:17:15;;;;;;;1.73;0.90;;;;;;;9.99;51.04;95742.09;5033772;28;20221;-80
2022/02/20 10:19:54;;;;;;;1.30;0.97;;;;;;;9.86;50.52;95738.47;5034808;28;20225;-79
2022/02/20 10:22:33;;;;;;;1.27;1.00;;;;;;;10.07;50.58;95750.72;5032788;28;20194;-79
2022/02/20 10:25:08;;;;;;;1.83;1.00;;;;;;;10.05;50.37;95738.03;5033135;28;20204;-80
2022/02/20 10:27:36;;;;;;;2.83;1.13;;;;;;;10.10;49.84;95740.91;5034281;28;20221;-80
2022/02/20 10:30:23;;;;;;;1.60;1.00;;;;;;;9.85;50.50;95744.56;5032937;28;20202;-80
2022/02/20 10:33:10;;;;;;;1.37;0.90;;;;;;;10.02;50.36;95722.94;5033422;28;20198;-80
2022/02/20 10:35:39;;;;;;;2.07;1.10;;;;;;;10.20;49.71;95731.22;5028433;28;20245;-79
2022/02/20 10:38:11;;;;;;;1.60;1.00;;;;;;;10.07;49.73;95727.59;5033371;28;20222;-81
2022/02/20 10:40:39;;;;;;;1.10;1.00;;;;;;;9.93;50.29;95722.19;5033431;28;20201;-80
2022/02/20 10:43:08;;;;;;;1.07;0.90;;;;;;;9.86;50.38;95710.97;5033550;28;20205;-80
2022/02/20 10:45:36;;;;;;;2.03;0.80;;;;;;;9.98;50.20;95709.63;5032391;28;20289;-79
2022/02/20 10:48:04;;;;;;;1.17;0.90;;;;;;;10.11;50.11;95708.28;5032582;28;20225;-80
2022/02/20 10:50:33;;;;;;;2.57;0.93;;;;;;;10.15;50.36;95706.97;5032106;28;20209;-79
2022/02/20 10:53:08;;;;;;;1.07;0.80;;;;;;;10.21;49.46;95712.25;5032834;28;20203;-80
2022/02/20 10:55:36;;;;;;;0.97;0.80;;;;;;;10.17;49.68;95689.59;5024032;28;20572;-79
2022/02/20 10:58:10;;;;;;;1.10;1.00;;;;;;;10.21;49.67;95685.72;5013712;28;20269;-80
2022/02/20 11:00:36;;;;;;;1.80;1.00;;;;;;;10.30;49.89;95684.69;5032029;28;20205;-79
2022/02/20 11:03:08;;;;;;;2.00;0.90;;;;;;;10.32;49.63;95673.25;5031743;28;20236;-79
2022/02/20 11:05:35;;;;;;;3.53;1.83;;;;;;;10.44;49.23;95671.06;5034027;28;20205;-79
2022/02/20 11:08:02;;;;;;;1.13;0.90;;;;;;;10.37;48.70;95663.25;5033523;28;20221;-80
2022/02/20 11:10:30;;;;;;;0.70;0.70;;;;;;;10.23;48.34;95647.75;5038946;28;20194;-79
2022/02/20 11:12:56;;;;;;;1.23;0.93;;;;;;;10.20;48.67;95648.13;5033683;28;20234;-79
2022/02/20 11:15:24;;;;;;;0.93;0.83;;;;;;;10.21;48.60;95660.78;5035500;28;20267;-79
2022/02/20 11:17:52;;;;;;;3.47;1.00;;;;;;;10.26;48.33;95655.13;5034941;28;20356;-80
2022/02/20 11:20:19;;;;;;;1.60;0.97;;;;;;;10.30;48.16;95656.38;5034331;28;20218;-80
2022/02/20 11:22:51;;;;;;;1.67;0.90;;;;;;;10.46;47.79;95663.97;5034780;28;20230;-79
2022/02/20 11:25:19;;;;;;;0.87;0.80;;;;;;;10.45;47.51;95664.16;5033954;28;20198;-79
2022/02/20 11:27:49;;;;;;;1.67;1.00;;;;;;;10.56;47.32;95663.75;5034794;28;20245;-80
2022/02/20 11:30:15;;;;;;;2.33;0.93;;;;;;;10.83;47.14;95664.94;5032817;28;20198;-80
2022/02/20 11:32:43;;;;;;;1.37;0.73;;;;;;;10.92;46.45;95663.88;5020339;28;20926;-79
2022/02/20 11:35:13;;;;;;;1.23;1.00;;;;;;;10.89;46.34;95683.06;5017401;28;20230;-79
2022/02/20 11:37:49;;;;;;;3.23;1.07;;;;;;;10.88;46.48;95653.13;5017247;28;20575;-80
2022/02/20 11:40:16;;;;;;;0.70;0.70;;;;;;;10.81;46.41;95649.66;5032997;28;20201;-79
2022/02/20 11:43:11;;;;;;;1.27;1.00;;;;;;;10.83;46.38;95646.91;5032768;28;20253;-80
2022/02/20 11:46:04;;;;;;;2.20;1.10;;;;;;;11.11;45.71;95641.94;4981796;28;20197;-80
2022/02/20 11:48:30;;;;;;;1.23;0.90;;;;;;;11.43;46.18;95624.31;5026976;28;20217;-80